createdAt,value
2024-02-07T00:00:15.893Z,2.45
2024-02-07T00:02:44.116Z,2.67
2024-02-07T00:05:12.039Z,2.45
2024-02-07T00:07:42.041Z,2.10
2024-02-07T00:10:10.651Z,2.65
2024-02-07T00:12:38.912Z,2.55
2024-02-07T00:15:08.464Z,2.58
2024-02-07T00:17:36.277Z,2.60
2024-02-07T00:20:05.698Z,2.67
2024-02-07T00:22:33.554Z,1.77
2024-02-07T00:25:02.861Z,2.97
2024-02-07T00:27:30.614Z,2.72
2024-02-07T00:29:58.436Z,2.78
2024-02-07T00:32:26.563Z,1.67
2024-02-07T00:34:54.391Z,2.80
2024-02-07T00:37:22.300Z,2.47
2024-02-07T00:39:50.110Z,2.28
2024-02-07T00:42:19.416Z,3.72
2024-02-07T00:44:47.269Z,3.10
2024-02-07T00:47:15.064Z,2.35
2024-02-07T00:49:42.973Z,3.00
2024-02-07T00:52:11.678Z,2.47
2024-02-07T00:54:39.523Z,3.70
2024-02-07T00:57:07.361Z,2.80
2024-02-07T00:59:36.506Z,3.05
2024-02-07T01:02:04.573Z,3.15
2024-02-07T01:04:32.421Z,2.60
2024-02-07T01:07:00.250Z,3.00
2024-02-07T01:09:30.554Z,2.45
2024-02-07T01:11:58.408Z,3.47
2024-02-07T01:14:27.712Z,3.00
2024-02-07T01:16:56.937Z,2.88
2024-02-07T01:19:25.492Z,2.75
2024-02-07T01:21:53.360Z,3.17
2024-02-07T01:24:21.440Z,2.80
2024-02-07T01:26:49.356Z,2.95
2024-02-07T01:29:17.212Z,2.55
2024-02-07T01:31:45.458Z,2.17
2024-02-07T01:34:14.885Z,2.72
2024-02-07T01:36:46.955Z,3.50
2024-02-07T01:39:17.239Z,2.70
2024-02-07T01:42:01.075Z,2.50
2024-02-07T01:44:30.678Z,2.55
2024-02-07T01:47:20.951Z,2.53
2024-02-07T01:49:52.871Z,3.20
2024-02-07T01:52:27.302Z,2.45
2024-02-07T01:57:24.297Z,3.40
2024-02-07T01:59:52.404Z,2.63
2024-02-07T02:02:24.319Z,2.30
2024-02-07T02:04:53.802Z,2.55
2024-02-07T02:07:23.216Z,2.20
2024-02-07T02:09:51.088Z,2.38
2024-02-07T02:12:19.875Z,2.08
2024-02-07T02:14:48.468Z,2.85
2024-02-07T02:17:16.288Z,2.30
2024-02-07T02:19:44.575Z,2.28
2024-02-07T02:22:47.210Z,1.92
2024-02-07T02:25:43.101Z,1.77
2024-02-07T02:28:29.284Z,2.85
2024-02-07T02:31:03.318Z,1.98
2024-02-07T02:33:35.097Z,3.15
2024-02-07T02:36:05.296Z,3.13
2024-02-07T02:38:37.507Z,2.17
2024-02-07T02:41:08.342Z,2.92
2024-02-07T02:43:38.324Z,2.00
2024-02-07T02:46:10.316Z,2.95
2024-02-07T02:48:38.630Z,2.63
2024-02-07T02:51:06.720Z,2.30
2024-02-07T02:53:34.599Z,2.22
2024-02-07T02:56:04.796Z,2.83
2024-02-07T02:58:39.879Z,2.95
2024-02-07T03:01:13.537Z,2.50
2024-02-07T03:03:45.235Z,2.25
2024-02-07T03:06:30.004Z,3.35
2024-02-07T03:11:36.368Z,2.50
2024-02-07T03:14:07.146Z,2.33
2024-02-07T03:16:36.992Z,2.92
2024-02-07T03:19:05.164Z,2.28
2024-02-07T03:21:32.078Z,2.85
2024-02-07T03:24:00.485Z,1.67
2024-02-07T03:26:28.344Z,1.77
2024-02-07T03:28:56.161Z,2.53
2024-02-07T03:31:24.511Z,2.50
2024-02-07T03:33:54.928Z,2.40
2024-02-07T03:36:23.645Z,3.42
2024-02-07T03:38:51.736Z,2.90
2024-02-07T03:41:19.786Z,2.40
2024-02-07T03:43:47.572Z,3.03
2024-02-07T03:46:16.291Z,3.75
2024-02-07T03:48:46.560Z,2.45
2024-02-07T03:51:16.872Z,3.08
2024-02-07T03:53:46.467Z,2.88
2024-02-07T03:56:14.327Z,2.42
2024-02-07T03:58:42.803Z,2.22
2024-02-07T04:01:11.978Z,3.33
2024-02-07T04:03:40.352Z,3.05
2024-02-07T04:06:08.328Z,3.13
2024-02-07T04:08:41.001Z,2.25
2024-02-07T04:11:13.283Z,2.83
2024-02-07T04:13:40.127Z,2.65
2024-02-07T04:16:26.294Z,3.50
2024-02-07T04:19:11.900Z,2.20
2024-02-07T04:21:57.202Z,2.85
2024-02-07T04:24:43.892Z,2.42
2024-02-07T04:27:29.303Z,2.65
2024-02-07T04:30:14.792Z,2.33
2024-02-07T04:33:00.284Z,2.00
2024-02-07T04:35:45.653Z,2.63
2024-02-07T04:38:30.954Z,2.50
2024-02-07T04:41:17.606Z,2.92
2024-02-07T04:44:03.046Z,2.35
2024-02-07T04:46:48.600Z,2.78
2024-02-07T04:49:34.052Z,1.98
2024-02-07T04:52:19.182Z,2.72
2024-02-07T04:55:04.630Z,2.50
2024-02-07T04:57:51.319Z,2.78
2024-02-07T05:00:36.620Z,2.65
2024-02-07T05:03:22.772Z,2.33
2024-02-07T05:06:08.163Z,2.13
2024-02-07T05:08:53.713Z,3.05
2024-02-07T05:11:39.114Z,1.88
2024-02-07T05:14:25.734Z,1.67
2024-02-07T05:16:53.740Z,1.73
2024-02-07T05:19:21.747Z,2.63
2024-02-07T05:21:49.649Z,1.73
2024-02-07T05:24:17.436Z,2.22
2024-02-07T05:26:45.213Z,2.30
2024-02-07T05:29:18.029Z,2.60
2024-02-07T05:31:46.142Z,1.98
2024-02-07T05:34:14.727Z,2.50
2024-02-07T05:36:42.667Z,1.60
2024-02-07T05:39:10.459Z,2.33
2024-02-07T05:41:38.641Z,1.60
2024-02-07T05:44:08.188Z,2.72
2024-02-07T05:46:38.541Z,1.30
2024-02-07T05:49:06.406Z,3.20
2024-02-07T05:51:34.683Z,2.53
2024-02-07T05:54:02.587Z,1.83
2024-02-07T05:56:30.897Z,1.85
2024-02-07T05:58:58.931Z,1.52
2024-02-07T06:01:27.955Z,2.47
2024-02-07T06:03:57.339Z,2.47
2024-02-07T06:06:30.831Z,2.15
2024-02-07T06:08:59.888Z,2.53
2024-02-07T06:11:32.737Z,2.40
2024-02-07T06:14:00.929Z,1.92
2024-02-07T06:16:28.779Z,2.67
2024-02-07T06:18:58.040Z,2.38
2024-02-07T06:21:25.911Z,2.50
2024-02-07T06:23:54.208Z,2.20
2024-02-07T06:26:21.994Z,2.17
2024-02-07T06:28:51.222Z,2.22
2024-02-07T06:31:21.250Z,2.55
2024-02-07T06:33:49.204Z,3.30
2024-02-07T06:36:18.466Z,2.58
2024-02-07T06:38:46.267Z,1.75
2024-02-07T06:41:14.125Z,2.28
2024-02-07T06:43:41.983Z,2.05
2024-02-07T06:46:09.899Z,3.00
2024-02-07T06:48:37.825Z,1.85
2024-02-07T06:51:06.133Z,2.28
2024-02-07T06:53:35.239Z,2.85
2024-02-07T06:56:03.076Z,2.42
2024-02-07T06:58:31.347Z,2.67
2024-02-07T07:01:01.257Z,1.48
2024-02-07T07:03:31.101Z,2.22
2024-02-07T07:05:59.391Z,2.30
2024-02-07T07:08:27.300Z,1.95
2024-02-07T07:10:56.440Z,1.55
2024-02-07T07:13:24.279Z,2.20
2024-02-07T07:15:52.077Z,2.55
2024-02-07T07:18:20.055Z,2.45
2024-02-07T07:20:47.915Z,2.50
2024-02-07T07:23:16.865Z,1.83
2024-02-07T07:25:45.724Z,1.63
2024-02-07T07:28:14.999Z,2.20
2024-02-07T07:30:42.837Z,2.10
2024-02-07T07:33:10.672Z,1.92
2024-02-07T07:35:38.620Z,2.13
2024-02-07T07:38:10.214Z,2.13
2024-02-07T07:40:40.484Z,2.10
2024-02-07T07:43:08.683Z,2.08
2024-02-07T07:45:37.782Z,2.00
2024-02-07T07:48:07.322Z,1.73
2024-02-07T07:50:35.138Z,1.67
2024-02-07T07:53:02.948Z,1.60
2024-02-07T07:55:30.788Z,2.85
2024-02-07T07:57:58.654Z,1.33
2024-02-07T08:00:26.475Z,1.95
2024-02-07T08:02:55.670Z,2.17
2024-02-07T08:05:23.581Z,1.90
2024-02-07T08:07:51.555Z,1.60
2024-02-07T08:10:19.398Z,2.22
2024-02-07T08:12:47.227Z,2.00
2024-02-07T08:15:15.060Z,1.88
2024-02-07T08:17:42.903Z,1.70
2024-02-07T08:20:13.685Z,1.88
2024-02-07T08:22:41.645Z,2.45
2024-02-07T08:25:10.318Z,1.58
2024-02-07T08:27:38.122Z,1.88
2024-02-07T08:30:07.187Z,1.73
2024-02-07T08:32:35.098Z,1.98
2024-02-07T08:35:03.269Z,2.08
2024-02-07T08:37:32.707Z,2.47
2024-02-07T08:40:00.538Z,2.72
2024-02-07T08:42:28.821Z,1.90
2024-02-07T08:44:56.645Z,2.20
2024-02-07T08:47:24.539Z,2.70
2024-02-07T08:49:52.507Z,2.55
2024-02-07T08:52:20.343Z,2.55
2024-02-07T08:54:49.715Z,1.92
2024-02-07T08:57:17.552Z,2.60
2024-02-07T08:59:46.516Z,2.08
2024-02-07T09:02:14.596Z,2.63
2024-02-07T09:04:42.617Z,2.88
2024-02-07T09:07:10.553Z,2.10
2024-02-07T09:09:38.321Z,2.83
2024-02-07T09:12:08.611Z,2.13
2024-02-07T09:14:37.110Z,1.80
2024-02-07T09:17:05.502Z,1.50
2024-02-07T09:19:33.397Z,2.17
2024-02-07T09:22:01.303Z,2.67
2024-02-07T09:24:29.127Z,2.05
2024-02-07T09:26:58.658Z,1.73
2024-02-07T09:29:28.417Z,2.47
2024-02-07T09:31:56.335Z,2.38
2024-02-07T09:34:24.311Z,1.63
2024-02-07T09:36:52.134Z,2.13
2024-02-07T09:39:21.657Z,2.00
2024-02-07T09:41:51.746Z,1.45
2024-02-07T09:44:20.714Z,2.28
2024-02-07T09:46:54.853Z,2.42
2024-02-07T09:49:26.218Z,2.45
2024-02-07T09:51:54.601Z,2.15
2024-02-07T09:54:23.543Z,2.58
2024-02-07T09:56:54.318Z,2.38
2024-02-07T09:59:23.312Z,1.75
2024-02-07T10:01:55.057Z,2.80
2024-02-07T10:04:30.371Z,2.08
2024-02-07T10:06:59.184Z,1.63
2024-02-07T10:09:29.841Z,2.63
2024-02-07T10:11:57.929Z,2.35
2024-02-07T10:14:27.913Z,2.00
2024-02-07T10:16:57.147Z,2.38
2024-02-07T10:19:26.901Z,2.83
2024-02-07T10:21:54.838Z,2.00
2024-02-07T10:24:22.643Z,2.33
2024-02-07T10:26:50.406Z,2.83
2024-02-07T10:29:22.318Z,2.47
2024-02-07T10:31:54.718Z,2.42
2024-02-07T10:34:25.900Z,2.55
2024-02-07T10:37:02.928Z,2.05
2024-02-07T10:39:30.741Z,2.40
2024-02-07T10:42:01.268Z,2.50
2024-02-07T10:44:29.128Z,2.05
2024-02-07T10:47:00.888Z,2.45
2024-02-07T10:49:32.718Z,2.20
2024-02-07T10:52:01.135Z,2.33
2024-02-07T10:54:29.437Z,2.75
2024-02-07T10:56:58.866Z,1.90
2024-02-07T10:59:28.970Z,1.88
2024-02-07T11:01:57.511Z,2.08
2024-02-07T11:04:30.155Z,2.28
2024-02-07T11:07:01.673Z,1.40
2024-02-07T11:09:29.685Z,2.08
2024-02-07T11:11:58.813Z,1.98
2024-02-07T11:14:27.229Z,2.10
2024-02-07T11:16:55.260Z,1.90
2024-02-07T11:19:23.584Z,2.30
2024-02-07T11:21:51.674Z,2.03
2024-02-07T11:24:22.755Z,1.52
2024-02-07T11:26:51.547Z,2.00
2024-02-07T11:29:19.503Z,2.90
2024-02-07T11:31:48.449Z,2.05
2024-02-07T11:34:17.277Z,2.03
2024-02-07T11:36:55.211Z,1.98
2024-02-07T11:39:24.602Z,2.22
2024-02-07T11:41:52.444Z,2.10
2024-02-07T11:44:24.530Z,2.17
2024-02-07T11:46:55.010Z,2.28
2024-02-07T11:49:29.663Z,1.83
2024-02-07T11:52:01.351Z,1.73
2024-02-07T11:54:33.560Z,1.52
2024-02-07T11:57:01.509Z,1.77
2024-02-07T11:59:29.426Z,1.60
2024-02-07T12:01:57.949Z,1.73
2024-02-07T12:04:26.159Z,1.95
2024-02-07T12:06:54.085Z,2.60
2024-02-07T12:09:25.254Z,1.90
2024-02-07T12:11:54.375Z,1.88
2024-02-07T12:14:22.162Z,1.98
2024-02-07T12:16:51.934Z,1.80
2024-02-07T12:19:20.008Z,1.90
2024-02-07T12:21:48.205Z,1.42
2024-02-07T12:24:16.747Z,1.73
2024-02-07T12:26:44.659Z,1.90
2024-02-07T12:29:13.912Z,1.52
2024-02-07T12:31:41.705Z,1.85
2024-02-07T12:34:11.645Z,1.65
2024-02-07T12:36:39.567Z,1.80
2024-02-07T12:39:09.204Z,2.38
2024-02-07T12:41:37.052Z,1.73
2024-02-07T12:44:09.728Z,1.75
2024-02-07T12:46:40.447Z,1.60
2024-02-07T12:49:09.556Z,1.58
2024-02-07T12:51:37.485Z,1.77
2024-02-07T12:54:06.066Z,1.67
2024-02-07T12:56:33.850Z,1.80
2024-02-07T12:59:01.683Z,2.20
2024-02-07T13:01:29.581Z,1.83
2024-02-07T13:03:58.861Z,1.65
2024-02-07T13:06:27.243Z,1.90
2024-02-07T13:08:55.090Z,1.50
2024-02-07T13:11:22.913Z,2.67
2024-02-07T13:13:50.774Z,1.45
2024-02-07T13:16:21.184Z,1.40
2024-02-07T13:18:49.094Z,1.42
2024-02-07T13:21:18.394Z,1.23
2024-02-07T13:23:46.220Z,1.10
2024-02-07T13:26:14.118Z,1.20
2024-02-07T13:28:43.784Z,1.67
2024-02-07T13:31:11.716Z,1.70
2024-02-07T13:33:39.591Z,1.13
2024-02-07T13:36:08.302Z,1.20
2024-02-07T13:38:38.222Z,1.42
2024-02-07T13:41:06.863Z,1.35
2024-02-07T13:43:35.086Z,1.80
2024-02-07T13:46:02.955Z,1.35
2024-02-07T13:48:30.947Z,1.38
2024-02-07T13:51:00.170Z,1.08
2024-02-07T13:53:28.041Z,1.63
2024-02-07T13:55:58.232Z,0.73
2024-02-07T13:58:26.926Z,0.75
2024-02-07T14:00:54.814Z,0.47
2024-02-07T14:03:22.625Z,0.85
2024-02-07T14:05:50.633Z,0.45
2024-02-07T14:08:18.489Z,0.43
2024-02-07T14:10:50.043Z,0.57
2024-02-07T14:13:19.685Z,0.50
2024-02-07T14:15:48.230Z,1.40
2024-02-07T14:18:16.162Z,0.17
2024-02-07T14:20:44.062Z,0.68
2024-02-07T14:23:13.056Z,0.63
2024-02-07T14:25:41.095Z,0.70
2024-02-07T14:28:08.951Z,0.70
2024-02-07T14:30:38.612Z,0.57
2024-02-07T14:33:08.609Z,0.30
2024-02-07T14:35:36.526Z,0.55
2024-02-07T14:38:04.739Z,0.50
2024-02-07T14:40:32.612Z,0.32
2024-02-07T14:43:00.427Z,0.65
2024-02-07T14:45:28.201Z,0.73
2024-02-07T14:47:57.435Z,0.68
2024-02-07T14:50:25.579Z,0.30
2024-02-07T14:52:53.641Z,0.77
2024-02-07T14:55:21.498Z,0.65
2024-02-07T14:57:51.951Z,0.70
2024-02-07T15:00:20.929Z,0.70
2024-02-07T15:02:48.762Z,0.85
2024-02-07T15:05:18.298Z,0.90
2024-02-07T15:07:47.884Z,0.65
2024-02-07T15:10:16.293Z,0.60
2024-02-07T15:12:44.259Z,0.60
2024-02-07T15:15:12.090Z,0.70
2024-02-07T15:17:42.394Z,0.93
2024-02-07T15:20:12.703Z,0.88
2024-02-07T15:22:41.964Z,0.50
2024-02-07T15:25:10.903Z,0.63
2024-02-07T15:27:43.154Z,0.88
2024-02-07T15:30:13.944Z,2.03
2024-02-07T15:32:41.990Z,1.10
2024-02-07T15:35:15.342Z,0.65
2024-02-07T15:37:44.727Z,0.52
2024-02-07T15:40:13.638Z,0.88
2024-02-07T15:42:43.422Z,1.00
2024-02-07T15:45:11.847Z,1.20
2024-02-07T15:47:39.767Z,1.35
2024-02-07T15:50:08.912Z,0.73
2024-02-07T15:52:36.953Z,0.95
2024-02-07T15:55:07.086Z,0.98
2024-02-07T15:57:34.925Z,0.82
2024-02-07T16:00:02.756Z,0.75
2024-02-07T16:02:30.671Z,0.90
2024-02-07T16:04:58.767Z,1.08
2024-02-07T16:07:26.930Z,0.93
2024-02-07T16:09:54.849Z,0.95
2024-02-07T16:12:23.993Z,0.38
2024-02-07T16:14:51.764Z,0.45
2024-02-07T16:17:19.551Z,0.73
2024-02-07T16:19:47.409Z,0.95
2024-02-07T16:22:15.263Z,0.65
2024-02-07T16:24:43.140Z,0.70
2024-02-07T16:27:11.040Z,0.93
2024-02-07T16:29:40.152Z,0.85
2024-02-07T16:32:08.163Z,0.82
2024-02-07T16:34:36.110Z,0.95
2024-02-07T16:37:06.746Z,0.88
2024-02-07T16:39:39.382Z,1.20
2024-02-07T16:42:07.920Z,0.77
2024-02-07T16:44:36.052Z,0.73
2024-02-07T16:47:05.306Z,1.10
2024-02-07T16:49:33.302Z,0.73
2024-02-07T16:52:01.172Z,0.85
2024-02-07T16:54:28.968Z,1.08
2024-02-07T16:56:56.849Z,2.50
2024-02-07T16:59:27.000Z,1.38
2024-02-07T17:01:55.413Z,1.60
2024-02-07T17:04:24.687Z,1.73
2024-02-07T17:06:54.871Z,2.22
2024-02-07T17:09:23.053Z,1.60
2024-02-07T17:11:50.857Z,1.73
2024-02-07T17:14:21.395Z,1.30
2024-02-07T17:16:49.169Z,1.00
2024-02-07T17:19:17.222Z,1.80
2024-02-07T17:21:46.382Z,1.08
2024-02-07T17:24:14.171Z,1.10
2024-02-07T17:26:42.503Z,1.65
2024-02-07T17:29:10.479Z,1.35
2024-02-07T17:31:43.010Z,1.00
2024-02-07T17:34:12.536Z,0.80
2024-02-07T17:36:41.772Z,1.40
2024-02-07T17:39:10.922Z,0.82
2024-02-07T17:41:38.667Z,0.70
2024-02-07T17:44:07.025Z,1.63
2024-02-07T17:46:35.159Z,1.13
2024-02-07T17:49:03.102Z,1.00
2024-02-07T17:51:30.935Z,0.95
2024-02-07T17:53:58.887Z,1.10
2024-02-07T17:56:28.060Z,1.38
2024-02-07T17:58:55.854Z,1.25
2024-02-07T18:01:23.798Z,1.20
2024-02-07T18:03:51.675Z,1.13
2024-02-07T18:06:19.486Z,0.55
2024-02-07T18:08:47.401Z,1.17
2024-02-07T18:11:21.723Z,1.05
2024-02-07T18:13:56.262Z,1.13
2024-02-07T18:16:24.961Z,1.00
2024-02-07T18:18:52.921Z,1.10
2024-02-07T18:21:20.905Z,1.02
2024-02-07T18:23:49.518Z,1.60
2024-02-07T18:26:18.035Z,1.58
2024-02-07T18:28:45.833Z,1.10
2024-02-07T18:31:14.943Z,1.20
2024-02-07T18:33:42.803Z,1.00
2024-02-07T18:36:14.103Z,1.67
2024-02-07T18:38:43.324Z,1.38
2024-02-07T18:41:11.585Z,1.35
2024-02-07T18:43:40.447Z,1.70
2024-02-07T18:46:08.216Z,1.08
2024-02-07T18:48:37.520Z,1.73
2024-02-07T18:51:06.358Z,1.67
2024-02-07T18:53:34.168Z,1.60
2024-02-07T18:56:02.163Z,1.23
2024-02-07T18:58:30.323Z,1.42
2024-02-07T19:00:58.092Z,0.90
2024-02-07T19:03:25.949Z,0.63
2024-02-07T19:05:55.306Z,0.80
2024-02-07T19:08:23.187Z,1.13
2024-02-07T19:10:51.050Z,0.98
2024-02-07T19:13:18.940Z,1.17
2024-02-07T19:15:46.747Z,1.23
2024-02-07T19:18:14.576Z,1.42
2024-02-07T19:20:43.216Z,1.40
2024-02-07T19:23:12.558Z,1.00
2024-02-07T19:25:40.381Z,1.00
2024-02-07T19:28:08.190Z,0.98
2024-02-07T19:30:35.993Z,0.88
2024-02-07T19:33:03.993Z,1.35
2024-02-07T19:35:31.946Z,1.25
2024-02-07T19:37:59.881Z,1.08
2024-02-07T19:40:29.125Z,1.10
2024-02-07T19:42:56.982Z,0.70
2024-02-07T19:45:24.765Z,0.80
2024-02-07T19:47:54.574Z,0.70
2024-02-07T19:50:22.500Z,1.02
2024-02-07T19:52:50.414Z,0.70
2024-02-07T19:55:18.539Z,0.50
2024-02-07T19:57:47.676Z,0.88
2024-02-07T20:00:16.421Z,1.23
2024-02-07T20:02:44.206Z,1.15
2024-02-07T20:05:13.949Z,1.08
2024-02-07T20:07:41.857Z,0.82
2024-02-07T20:10:09.985Z,1.70
2024-02-07T20:12:37.728Z,0.80
2024-02-07T20:15:07.781Z,1.00
2024-02-07T20:17:35.809Z,0.55
2024-02-07T20:20:03.625Z,0.77
2024-02-07T20:22:31.496Z,0.52
2024-02-07T20:24:59.307Z,0.95
2024-02-07T20:27:27.998Z,0.90
2024-02-07T20:30:01.787Z,0.85
2024-02-07T20:32:31.478Z,0.98
2024-02-07T20:35:00.922Z,0.60
2024-02-07T20:37:28.801Z,0.93
2024-02-07T20:39:56.598Z,0.77
2024-02-07T20:42:26.935Z,0.90
2024-02-07T20:44:56.558Z,0.50
2024-02-07T20:47:24.452Z,0.82
2024-02-07T20:49:53.672Z,0.77
2024-02-07T20:52:21.459Z,1.08
2024-02-07T20:54:49.963Z,0.70
2024-02-07T20:57:19.024Z,0.52
2024-02-07T20:59:46.786Z,0.82
2024-02-07T21:02:14.795Z,0.73
2024-02-07T21:04:42.737Z,0.95
2024-02-07T21:07:11.881Z,0.90
2024-02-07T21:09:39.729Z,1.00
2024-02-07T21:12:08.632Z,0.57
2024-02-07T21:14:37.567Z,1.25
2024-02-07T21:17:06.544Z,1.17
2024-02-07T21:19:35.934Z,0.55
2024-02-07T21:22:06.057Z,0.50
2024-02-07T21:24:35.318Z,0.70
2024-02-07T21:27:04.958Z,0.80
2024-02-07T21:29:33.363Z,0.80
2024-02-07T21:32:01.741Z,0.75
2024-02-07T21:34:29.801Z,0.85
2024-02-07T21:36:57.672Z,0.57
2024-02-07T21:39:25.505Z,0.80
2024-02-07T21:41:54.636Z,1.08
2024-02-07T21:44:22.623Z,0.52
2024-02-07T21:46:50.429Z,0.68
2024-02-07T21:49:18.358Z,1.00
2024-02-07T21:51:46.224Z,0.73
2024-02-07T21:54:14.075Z,0.70
2024-02-07T21:56:41.917Z,0.70
2024-02-07T21:59:11.144Z,0.90
2024-02-07T22:01:40.265Z,0.88
2024-02-07T22:04:08.163Z,0.38
2024-02-07T22:06:41.833Z,0.40
2024-02-07T22:09:09.771Z,0.73
2024-02-07T22:11:37.594Z,0.35
2024-02-07T22:14:05.608Z,0.38
2024-02-07T22:16:34.864Z,0.40
2024-02-07T22:19:02.711Z,0.57
2024-02-07T22:21:30.523Z,0.63
2024-02-07T22:23:59.098Z,0.30
2024-02-07T22:26:27.032Z,0.85
2024-02-07T22:28:54.931Z,0.70
2024-02-07T22:31:23.675Z,0.30
2024-02-07T22:33:53.370Z,0.55
2024-02-07T22:36:21.198Z,0.55
2024-02-07T22:38:49.025Z,0.63
2024-02-07T22:41:16.893Z,1.00
2024-02-07T22:43:44.733Z,0.57
2024-02-07T22:46:12.552Z,0.40
2024-02-07T22:48:40.410Z,0.50
2024-02-07T22:51:09.556Z,0.88
2024-02-07T22:53:37.639Z,0.68
2024-02-07T22:56:07.526Z,0.40
2024-02-07T22:58:35.440Z,0.40
2024-02-07T23:01:03.205Z,0.65
2024-02-07T23:03:31.050Z,0.70
2024-02-07T23:05:58.947Z,0.32
2024-02-07T23:08:28.189Z,0.77
2024-02-07T23:10:55.960Z,0.20
2024-02-07T23:13:23.776Z,0.63
2024-02-07T23:15:51.630Z,0.32
2024-02-07T23:18:19.576Z,0.75
2024-02-07T23:20:47.418Z,0.60
2024-02-07T23:23:15.209Z,0.80
2024-02-07T23:25:44.424Z,0.63
2024-02-07T23:28:12.258Z,0.52
2024-02-07T23:30:41.314Z,0.63
2024-02-07T23:33:10.732Z,0.45
2024-02-07T23:35:38.688Z,0.55
2024-02-07T23:38:06.535Z,0.68
2024-02-07T23:40:34.321Z,0.40
2024-02-07T23:43:03.552Z,0.20
2024-02-07T23:45:31.344Z,0.50
2024-02-07T23:48:00.915Z,0.57
2024-02-07T23:50:28.830Z,0.57
2024-02-07T23:52:56.716Z,0.43
2024-02-07T23:55:25.558Z,0.30
2024-02-07T23:57:53.361Z,0.40
